sensor_id;sensor_type;location;lat;lon;timestamp;temperature;humidity
30049;DHT22;16879;50.852;15.602;2022-08-20T00:01:50;20.80;99.90
30049;DHT22;16879;50.852;15.602;2022-08-20T00:04:16;20.70;99.90
30049;DHT22;16879;50.852;15.602;2022-08-20T00:06:42;16.80;99.90
30049;DHT22;16879;50.852;15.602;2022-08-20T00:09:10;20.70;99.90
30049;DHT22;16879;50.852;15.602;2022-08-20T00:11:35;20.60;99.90
30049;DHT22;16879;50.852;15.602;2022-08-20T00:14:03;20.60;99.90
30049;DHT22;16879;50.852;15.602;2022-08-20T00:16:33;20.70;99.90
30049;DHT22;16879;50.852;15.602;2022-08-20T00:19:00;20.70;99.90
30049;DHT22;16879;50.852;15.602;2022-08-20T00:21:26;20.70;99.90
30049;DHT22;16879;50.852;15.602;2022-08-20T00:23:54;20.70;99.90
30049;DHT22;16879;50.852;15.602;2022-08-20T00:26:20;20.70;99.90
30049;DHT22;16879;50.852;15.602;2022-08-20T00:28:47;20.60;99.90
30049;DHT22;16879;50.852;15.602;2022-08-20T00:31:16;20.70;99.90
30049;DHT22;16879;50.852;15.602;2022-08-20T00:33:43;20.60;99.90
30049;DHT22;16879;50.852;15.602;2022-08-20T00:36:10;20.60;99.90
30049;DHT22;16879;50.852;15.602;2022-08-20T00:38:39;20.50;99.90
30049;DHT22;16879;50.852;15.602;2022-08-20T00:41:07;20.50;99.90
30049;DHT22;16879;50.852;15.602;2022-08-20T00:43:49;20.40;99.90
30049;DHT22;16879;50.852;15.602;2022-08-20T00:46:31;20.40;99.90
30049;DHT22;16879;50.852;15.602;2022-08-20T00:48:57;20.40;99.90
30049;DHT22;16879;50.852;15.602;2022-08-20T00:51:30;20.40;99.90
30049;DHT22;16879;50.852;15.602;2022-08-20T00:54:24;20.40;99.90
30049;DHT22;16879;50.852;15.602;2022-08-20T00:57:05;20.40;99.90
30049;DHT22;16879;50.852;15.602;2022-08-20T00:59:33;20.40;99.90
30049;DHT22;16879;50.852;15.602;2022-08-20T01:02:00;20.40;99.90
30049;DHT22;16879;50.852;15.602;2022-08-20T01:04:29;20.40;99.90
30049;DHT22;16879;50.852;15.602;2022-08-20T01:06:56;20.40;99.90
30049;DHT22;16879;50.852;15.602;2022-08-20T01:09:23;20.40;99.90
30049;DHT22;16879;50.852;15.602;2022-08-20T01:11:49;20.40;99.90
30049;DHT22;16879;50.852;15.602;2022-08-20T01:14:14;20.40;99.90
30049;DHT22;16879;50.852;15.602;2022-08-20T01:16:48;20.40;99.90
30049;DHT22;16879;50.852;15.602;2022-08-20T01:19:16;20.40;99.90
30049;DHT22;16879;50.852;15.602;2022-08-20T01:21:44;20.40;99.90
30049;DHT22;16879;50.852;15.602;2022-08-20T01:24:25;20.40;99.90
30049;DHT22;16879;50.852;15.602;2022-08-20T01:26:53;20.40;99.90
30049;DHT22;16879;50.852;15.602;2022-08-20T01:29:23;20.40;99.90
30049;DHT22;16879;50.852;15.602;2022-08-20T01:31:50;20.30;99.90
30049;DHT22;16879;50.852;15.602;2022-08-20T01:34:18;20.40;99.90
30049;DHT22;16879;50.852;15.602;2022-08-20T01:36:50;20.30;99.90
30049;DHT22;16879;50.852;15.602;2022-08-20T01:39:21;20.30;99.90
30049;DHT22;16879;50.852;15.602;2022-08-20T01:42:08;20.30;99.90
30049;DHT22;16879;50.852;15.602;2022-08-20T01:44:40;20.30;99.90
30049;DHT22;16879;50.852;15.602;2022-08-20T01:47:12;20.30;99.90
30049;DHT22;16879;50.852;15.602;2022-08-20T01:49:41;20.10;99.90
30049;DHT22;16879;50.852;15.602;2022-08-20T01:52:11;20.30;99.90
30049;DHT22;16879;50.852;15.602;2022-08-20T01:54:40;20.50;99.90
30049;DHT22;16879;50.852;15.602;2022-08-20T01:57:13;20.20;99.90
30049;DHT22;16879;50.852;15.602;2022-08-20T01:59:40;20.20;99.90
30049;DHT22;16879;50.852;15.602;2022-08-20T02:04:33;20.20;99.90
30049;DHT22;16879;50.852;15.602;2022-08-20T02:07:01;20.10;99.90
30049;DHT22;16879;50.852;15.602;2022-08-20T02:09:31;20.20;99.90
30049;DHT22;16879;50.852;15.602;2022-08-20T02:11:58;20.10;99.90
30049;DHT22;16879;50.852;15.602;2022-08-20T02:14:25;20.10;99.90
30049;DHT22;16879;50.852;15.602;2022-08-20T02:16:52;20.10;99.90
30049;DHT22;16879;50.852;15.602;2022-08-20T02:19:45;20.10;99.90
30049;DHT22;16879;50.852;15.602;2022-08-20T02:22:29;20.10;99.90
30049;DHT22;16879;50.852;15.602;2022-08-20T02:24:59;20.10;99.90
30049;DHT22;16879;50.852;15.602;2022-08-20T02:27:25;20.10;99.90
30049;DHT22;16879;50.852;15.602;2022-08-20T02:29:51;20.00;99.90
30049;DHT22;16879;50.852;15.602;2022-08-20T02:32:18;20.00;99.90
30049;DHT22;16879;50.852;15.602;2022-08-20T02:34:44;20.00;99.90
30049;DHT22;16879;50.852;15.602;2022-08-20T02:37:10;20.00;99.90
30049;DHT22;16879;50.852;15.602;2022-08-20T02:39:39;20.00;99.90
30049;DHT22;16879;50.852;15.602;2022-08-20T02:42:05;20.00;99.90
30049;DHT22;16879;50.852;15.602;2022-08-20T02:44:31;20.00;99.90
30049;DHT22;16879;50.852;15.602;2022-08-20T02:46:57;20.00;99.90
30049;DHT22;16879;50.852;15.602;2022-08-20T02:49:24;20.00;99.90
30049;DHT22;16879;50.852;15.602;2022-08-20T02:51:50;20.00;99.90
30049;DHT22;16879;50.852;15.602;2022-08-20T02:54:16;20.00;99.90
30049;DHT22;16879;50.852;15.602;2022-08-20T02:56:42;19.90;99.90
30049;DHT22;16879;50.852;15.602;2022-08-20T02:59:08;19.90;99.90
30049;DHT22;16879;50.852;15.602;2022-08-20T03:01:34;19.90;99.90
30049;DHT22;16879;50.852;15.602;2022-08-20T03:04:00;19.90;99.90
30049;DHT22;16879;50.852;15.602;2022-08-20T03:06:28;19.80;99.90
30049;DHT22;16879;50.852;15.602;2022-08-20T03:08:54;19.80;99.90
30049;DHT22;16879;50.852;15.602;2022-08-20T03:11:20;19.80;99.90
30049;DHT22;16879;50.852;15.602;2022-08-20T03:13:46;19.80;99.90
30049;DHT22;16879;50.852;15.602;2022-08-20T03:16:12;19.80;99.90
30049;DHT22;16879;50.852;15.602;2022-08-20T03:18:44;19.80;99.90
30049;DHT22;16879;50.852;15.602;2022-08-20T03:21:11;19.80;99.90
30049;DHT22;16879;50.852;15.602;2022-08-20T03:23:38;19.80;99.90
30049;DHT22;16879;50.852;15.602;2022-08-20T03:26:06;19.80;99.90
30049;DHT22;16879;50.852;15.602;2022-08-20T03:28:32;19.80;99.90
30049;DHT22;16879;50.852;15.602;2022-08-20T03:30:58;19.80;99.90
30049;DHT22;16879;50.852;15.602;2022-08-20T03:33:26;19.80;99.90
30049;DHT22;16879;50.852;15.602;2022-08-20T03:35:52;19.80;99.90
30049;DHT22;16879;50.852;15.602;2022-08-20T03:38:20;19.80;99.90
30049;DHT22;16879;50.852;15.602;2022-08-20T03:40:47;19.70;99.90
30049;DHT22;16879;50.852;15.602;2022-08-20T03:43:13;19.70;99.90
30049;DHT22;16879;50.852;15.602;2022-08-20T03:45:41;19.80;99.90
30049;DHT22;16879;50.852;15.602;2022-08-20T03:48:11;19.80;99.90
30049;DHT22;16879;50.852;15.602;2022-08-20T03:50:37;19.80;99.90
30049;DHT22;16879;50.852;15.602;2022-08-20T03:53:08;19.80;99.90
30049;DHT22;16879;50.852;15.602;2022-08-20T03:55:35;19.80;99.90
30049;DHT22;16879;50.852;15.602;2022-08-20T03:58:03;19.80;99.90
30049;DHT22;16879;50.852;15.602;2022-08-20T04:00:38;19.80;99.90
30049;DHT22;16879;50.852;15.602;2022-08-20T04:03:05;19.80;99.90
30049;DHT22;16879;50.852;15.602;2022-08-20T04:05:35;19.80;99.90
30049;DHT22;16879;50.852;15.602;2022-08-20T04:08:09;19.80;99.90
30049;DHT22;16879;50.852;15.602;2022-08-20T04:10:36;19.80;99.90
30049;DHT22;16879;50.852;15.602;2022-08-20T04:13:03;19.80;99.90
30049;DHT22;16879;50.852;15.602;2022-08-20T04:15:29;19.80;99.90
30049;DHT22;16879;50.852;15.602;2022-08-20T04:17:56;19.80;99.90
30049;DHT22;16879;50.852;15.602;2022-08-20T04:20:23;19.80;99.90
30049;DHT22;16879;50.852;15.602;2022-08-20T04:22:54;19.80;99.90
30049;DHT22;16879;50.852;15.602;2022-08-20T04:25:20;19.70;99.90
30049;DHT22;16879;50.852;15.602;2022-08-20T04:27:47;19.80;99.90
30049;DHT22;16879;50.852;15.602;2022-08-20T04:30:17;19.70;99.90
30049;DHT22;16879;50.852;15.602;2022-08-20T04:32:44;19.70;99.90
30049;DHT22;16879;50.852;15.602;2022-08-20T04:35:12;19.70;99.90
30049;DHT22;16879;50.852;15.602;2022-08-20T04:37:40;19.70;99.90
30049;DHT22;16879;50.852;15.602;2022-08-20T04:40:10;19.60;99.90
30049;DHT22;16879;50.852;15.602;2022-08-20T04:42:55;19.70;99.90
30049;DHT22;16879;50.852;15.602;2022-08-20T04:45:21;19.70;99.90
30049;DHT22;16879;50.852;15.602;2022-08-20T04:47:48;19.80;99.90
30049;DHT22;16879;50.852;15.602;2022-08-20T04:50:15;19.70;99.90
30049;DHT22;16879;50.852;15.602;2022-08-20T04:52:41;19.70;99.90
30049;DHT22;16879;50.852;15.602;2022-08-20T04:55:08;19.70;99.90
30049;DHT22;16879;50.852;15.602;2022-08-20T04:57:35;19.80;99.90
30049;DHT22;16879;50.852;15.602;2022-08-20T05:00:09;19.80;99.90
30049;DHT22;16879;50.852;15.602;2022-08-20T05:02:35;19.80;99.90
30049;DHT22;16879;50.852;15.602;2022-08-20T05:05:06;19.80;99.90
30049;DHT22;16879;50.852;15.602;2022-08-20T05:07:41;19.80;99.90
30049;DHT22;16879;50.852;15.602;2022-08-20T05:10:09;19.70;99.90
30049;DHT22;16879;50.852;15.602;2022-08-20T05:15:03;19.70;99.90
30049;DHT22;16879;50.852;15.602;2022-08-20T05:17:29;19.60;99.90
30049;DHT22;16879;50.852;15.602;2022-08-20T05:19:55;19.60;99.90
30049;DHT22;16879;50.852;15.602;2022-08-20T05:22:23;19.60;99.90
30049;DHT22;16879;50.852;15.602;2022-08-20T05:24:49;19.60;99.90
30049;DHT22;16879;50.852;15.602;2022-08-20T05:27:18;19.60;99.90
30049;DHT22;16879;50.852;15.602;2022-08-20T05:29:44;19.60;99.90
30049;DHT22;16879;50.852;15.602;2022-08-20T05:32:10;19.50;99.90
30049;DHT22;16879;50.852;15.602;2022-08-20T05:34:37;19.50;99.90
30049;DHT22;16879;50.852;15.602;2022-08-20T05:37:03;19.60;99.90
30049;DHT22;16879;50.852;15.602;2022-08-20T05:39:29;19.60;99.90
30049;DHT22;16879;50.852;15.602;2022-08-20T05:41:55;19.60;99.90
30049;DHT22;16879;50.852;15.602;2022-08-20T05:44:21;19.60;99.90
30049;DHT22;16879;50.852;15.602;2022-08-20T05:46:48;19.60;99.90
30049;DHT22;16879;50.852;15.602;2022-08-20T05:49:19;19.70;99.90
30049;DHT22;16879;50.852;15.602;2022-08-20T05:51:46;19.70;99.90
30049;DHT22;16879;50.852;15.602;2022-08-20T05:54:13;19.70;99.90
30049;DHT22;16879;50.852;15.602;2022-08-20T05:56:39;19.80;99.90
30049;DHT22;16879;50.852;15.602;2022-08-20T05:59:07;19.80;99.90
30049;DHT22;16879;50.852;15.602;2022-08-20T06:01:36;19.80;99.90
30049;DHT22;16879;50.852;15.602;2022-08-20T06:04:03;19.80;99.90
30049;DHT22;16879;50.852;15.602;2022-08-20T06:06:47;19.80;99.90
30049;DHT22;16879;50.852;15.602;2022-08-20T06:09:17;19.90;99.90
30049;DHT22;16879;50.852;15.602;2022-08-20T06:11:43;19.90;99.90
30049;DHT22;16879;50.852;15.602;2022-08-20T06:14:09;19.90;99.90
30049;DHT22;16879;50.852;15.602;2022-08-20T06:16:35;19.90;99.90
30049;DHT22;16879;50.852;15.602;2022-08-20T06:19:01;19.90;99.90
30049;DHT22;16879;50.852;15.602;2022-08-20T06:21:26;19.90;99.90
30049;DHT22;16879;50.852;15.602;2022-08-20T06:23:52;19.90;99.90
30049;DHT22;16879;50.852;15.602;2022-08-20T06:26:18;19.90;99.90
30049;DHT22;16879;50.852;15.602;2022-08-20T06:28:44;19.80;99.90
30049;DHT22;16879;50.852;15.602;2022-08-20T06:31:10;19.80;99.90
30049;DHT22;16879;50.852;15.602;2022-08-20T06:33:36;19.90;99.90
30049;DHT22;16879;50.852;15.602;2022-08-20T06:36:03;19.90;99.90
30049;DHT22;16879;50.852;15.602;2022-08-20T06:38:29;19.80;99.90
30049;DHT22;16879;50.852;15.602;2022-08-20T06:41:01;19.80;99.90
30049;DHT22;16879;50.852;15.602;2022-08-20T06:43:27;19.90;99.90
30049;DHT22;16879;50.852;15.602;2022-08-20T06:45:53;19.90;99.90
30049;DHT22;16879;50.852;15.602;2022-08-20T06:48:22;19.80;99.90
30049;DHT22;16879;50.852;15.602;2022-08-20T06:50:49;19.80;99.90
30049;DHT22;16879;50.852;15.602;2022-08-20T06:53:17;19.90;99.90
30049;DHT22;16879;50.852;15.602;2022-08-20T06:55:48;19.90;99.90
30049;DHT22;16879;50.852;15.602;2022-08-20T06:58:15;20.00;99.90
30049;DHT22;16879;50.852;15.602;2022-08-20T07:00:43;20.00;99.90
30049;DHT22;16879;50.852;15.602;2022-08-20T07:03:09;20.00;99.90
30049;DHT22;16879;50.852;15.602;2022-08-20T07:05:38;20.00;99.90
30049;DHT22;16879;50.852;15.602;2022-08-20T07:08:11;20.00;99.90
30049;DHT22;16879;50.852;15.602;2022-08-20T07:10:41;20.10;99.90
30049;DHT22;16879;50.852;15.602;2022-08-20T07:13:10;20.00;99.90
30049;DHT22;16879;50.852;15.602;2022-08-20T07:15:36;20.10;99.90
30049;DHT22;16879;50.852;15.602;2022-08-20T07:18:04;20.10;99.90
30049;DHT22;16879;50.852;15.602;2022-08-20T07:20:32;20.10;99.90
30049;DHT22;16879;50.852;15.602;2022-08-20T07:22:59;20.10;99.90
30049;DHT22;16879;50.852;15.602;2022-08-20T07:25:25;20.10;99.90
30049;DHT22;16879;50.852;15.602;2022-08-20T07:27:51;20.20;99.90
30049;DHT22;16879;50.852;15.602;2022-08-20T07:30:22;20.20;99.90
30049;DHT22;16879;50.852;15.602;2022-08-20T07:33:07;20.20;99.90
30049;DHT22;16879;50.852;15.602;2022-08-20T07:35:33;20.20;99.90
30049;DHT22;16879;50.852;15.602;2022-08-20T07:37:59;20.20;99.90
30049;DHT22;16879;50.852;15.602;2022-08-20T07:40:30;20.20;99.90
30049;DHT22;16879;50.852;15.602;2022-08-20T07:42:57;20.30;99.90
30049;DHT22;16879;50.852;15.602;2022-08-20T07:45:25;20.30;99.90
30049;DHT22;16879;50.852;15.602;2022-08-20T07:47:52;20.30;99.90
30049;DHT22;16879;50.852;15.602;2022-08-20T07:50:23;20.40;99.90
30049;DHT22;16879;50.852;15.602;2022-08-20T07:52:50;20.40;99.90
30049;DHT22;16879;50.852;15.602;2022-08-20T07:55:19;20.50;99.90
30049;DHT22;16879;50.852;15.602;2022-08-20T07:57:48;20.50;99.90
30049;DHT22;16879;50.852;15.602;2022-08-20T08:00:16;20.50;99.90
30049;DHT22;16879;50.852;15.602;2022-08-20T08:02:42;20.60;99.90
30049;DHT22;16879;50.852;15.602;2022-08-20T08:05:09;20.60;99.90
30049;DHT22;16879;50.852;15.602;2022-08-20T08:07:35;20.70;99.90
30049;DHT22;16879;50.852;15.602;2022-08-20T08:10:03;20.70;99.90
30049;DHT22;16879;50.852;15.602;2022-08-20T08:12:36;20.70;99.90
30049;DHT22;16879;50.852;15.602;2022-08-20T08:15:04;20.80;99.90
30049;DHT22;16879;50.852;15.602;2022-08-20T08:17:32;20.80;99.90
30049;DHT22;16879;50.852;15.602;2022-08-20T08:19:59;20.90;99.90
30049;DHT22;16879;50.852;15.602;2022-08-20T08:22:25;21.00;99.90
30049;DHT22;16879;50.852;15.602;2022-08-20T08:24:51;21.10;99.90
30049;DHT22;16879;50.852;15.602;2022-08-20T08:27:17;21.20;99.90
30049;DHT22;16879;50.852;15.602;2022-08-20T08:29:44;21.20;99.90
30049;DHT22;16879;50.852;15.602;2022-08-20T08:32:11;21.40;99.90
30049;DHT22;16879;50.852;15.602;2022-08-20T08:34:37;21.50;99.90
30049;DHT22;16879;50.852;15.602;2022-08-20T08:37:04;21.50;99.90
30049;DHT22;16879;50.852;15.602;2022-08-20T08:39:31;21.60;99.90
30049;DHT22;16879;50.852;15.602;2022-08-20T08:41:59;21.70;99.90
30049;DHT22;16879;50.852;15.602;2022-08-20T08:44:40;21.80;99.90
30049;DHT22;16879;50.852;15.602;2022-08-20T08:47:20;21.90;99.90
30049;DHT22;16879;50.852;15.602;2022-08-20T08:49:49;22.10;99.90
30049;DHT22;16879;50.852;15.602;2022-08-20T08:52:23;22.20;99.90
30049;DHT22;16879;50.852;15.602;2022-08-20T08:54:55;22.30;99.90
30049;DHT22;16879;50.852;15.602;2022-08-20T08:57:21;22.50;99.90
30049;DHT22;16879;50.852;15.602;2022-08-20T08:59:58;22.50;99.90
30049;DHT22;16879;50.852;15.602;2022-08-20T09:02:27;22.70;99.90
30049;DHT22;16879;50.852;15.602;2022-08-20T09:05:00;22.70;99.90
30049;DHT22;16879;50.852;15.602;2022-08-20T09:07:30;22.80;99.90
30049;DHT22;16879;50.852;15.602;2022-08-20T09:09:57;22.80;99.90
30049;DHT22;16879;50.852;15.602;2022-08-20T09:12:23;22.80;99.90
30049;DHT22;16879;50.852;15.602;2022-08-20T09:14:52;22.90;99.90
30049;DHT22;16879;50.852;15.602;2022-08-20T09:17:20;23.00;99.90
30049;DHT22;16879;50.852;15.602;2022-08-20T09:19:47;23.00;99.90
30049;DHT22;16879;50.852;15.602;2022-08-20T09:22:17;23.10;99.90
30049;DHT22;16879;50.852;15.602;2022-08-20T09:24:43;23.20;99.90
30049;DHT22;16879;50.852;15.602;2022-08-20T09:27:09;23.30;99.90
30049;DHT22;16879;50.852;15.602;2022-08-20T09:29:35;23.40;99.90
30049;DHT22;16879;50.852;15.602;2022-08-20T09:32:10;23.50;99.90
30049;DHT22;16879;50.852;15.602;2022-08-20T09:34:41;23.60;99.90
30049;DHT22;16879;50.852;15.602;2022-08-20T09:37:07;23.70;99.90
30049;DHT22;16879;50.852;15.602;2022-08-20T09:39:33;23.70;99.90
30049;DHT22;16879;50.852;15.602;2022-08-20T09:42:29;23.80;99.90
30049;DHT22;16879;50.852;15.602;2022-08-20T09:44:56;23.80;99.90
30049;DHT22;16879;50.852;15.602;2022-08-20T09:47:23;23.90;99.90
30049;DHT22;16879;50.852;15.602;2022-08-20T09:49:49;23.90;99.90
30049;DHT22;16879;50.852;15.602;2022-08-20T09:52:27;23.90;99.90
30049;DHT22;16879;50.852;15.602;2022-08-20T09:54:56;23.90;99.90
30049;DHT22;16879;50.852;15.602;2022-08-20T09:57:22;23.90;99.90
30049;DHT22;16879;50.852;15.602;2022-08-20T09:59:52;23.90;99.90
30049;DHT22;16879;50.852;15.602;2022-08-20T10:02:19;23.90;99.90
30049;DHT22;16879;50.852;15.602;2022-08-20T10:04:44;24.00;99.90
30049;DHT22;16879;50.852;15.602;2022-08-20T10:07:10;24.00;99.90
30049;DHT22;16879;50.852;15.602;2022-08-20T10:09:36;24.10;99.90
30049;DHT22;16879;50.852;15.602;2022-08-20T10:12:03;24.10;99.90
30049;DHT22;16879;50.852;15.602;2022-08-20T10:14:29;24.10;99.90
30049;DHT22;16879;50.852;15.602;2022-08-20T10:17:00;24.10;99.90
30049;DHT22;16879;50.852;15.602;2022-08-20T10:19:27;24.10;99.90
30049;DHT22;16879;50.852;15.602;2022-08-20T10:21:54;24.10;99.90
30049;DHT22;16879;50.852;15.602;2022-08-20T10:24:20;24.20;99.90
30049;DHT22;16879;50.852;15.602;2022-08-20T10:26:47;24.30;99.90
30049;DHT22;16879;50.852;15.602;2022-08-20T10:29:13;24.30;99.90
30049;DHT22;16879;50.852;15.602;2022-08-20T10:31:39;24.30;99.90
30049;DHT22;16879;50.852;15.602;2022-08-20T10:34:05;24.20;99.90
30049;DHT22;16879;50.852;15.602;2022-08-20T10:36:31;24.10;99.90
30049;DHT22;16879;50.852;15.602;2022-08-20T10:38:56;24.00;99.90
30049;DHT22;16879;50.852;15.602;2022-08-20T10:41:23;23.90;99.90
30049;DHT22;16879;50.852;15.602;2022-08-20T10:43:48;23.80;99.90
30049;DHT22;16879;50.852;15.602;2022-08-20T10:46:15;23.70;99.90
30049;DHT22;16879;50.852;15.602;2022-08-20T10:48:42;23.60;99.90
30049;DHT22;16879;50.852;15.602;2022-08-20T10:51:08;23.50;99.90
30049;DHT22;16879;50.852;15.602;2022-08-20T10:53:33;23.50;99.90
30049;DHT22;16879;50.852;15.602;2022-08-20T10:55:59;23.40;99.90
30049;DHT22;16879;50.852;15.602;2022-08-20T10:58:26;23.30;99.90
30049;DHT22;16879;50.852;15.602;2022-08-20T11:00:52;23.30;99.90
30049;DHT22;16879;50.852;15.602;2022-08-20T11:03:18;23.20;99.90
30049;DHT22;16879;50.852;15.602;2022-08-20T11:05:46;23.20;99.90
30049;DHT22;16879;50.852;15.602;2022-08-20T11:08:12;23.00;99.90
30049;DHT22;16879;50.852;15.602;2022-08-20T11:10:39;23.00;99.90
30049;DHT22;16879;50.852;15.602;2022-08-20T11:13:06;22.90;99.90
30049;DHT22;16879;50.852;15.602;2022-08-20T11:15:35;22.80;99.90
30049;DHT22;16879;50.852;15.602;2022-08-20T11:18:01;22.70;99.90
30049;DHT22;16879;50.852;15.602;2022-08-20T11:20:27;22.60;99.90
30049;DHT22;16879;50.852;15.602;2022-08-20T11:22:56;22.50;99.90
30049;DHT22;16879;50.852;15.602;2022-08-20T11:25:22;22.50;99.90
30049;DHT22;16879;50.852;15.602;2022-08-20T11:27:49;22.50;99.90
30049;DHT22;16879;50.852;15.602;2022-08-20T11:30:22;22.40;99.90
30049;DHT22;16879;50.852;15.602;2022-08-20T11:32:48;22.40;99.90
30049;DHT22;16879;50.852;15.602;2022-08-20T11:35:14;22.40;99.90
30049;DHT22;16879;50.852;15.602;2022-08-20T11:37:40;22.30;99.90
30049;DHT22;16879;50.852;15.602;2022-08-20T11:40:06;22.30;99.90
30049;DHT22;16879;50.852;15.602;2022-08-20T11:42:33;22.30;99.90
30049;DHT22;16879;50.852;15.602;2022-08-20T11:44:59;22.30;99.90
30049;DHT22;16879;50.852;15.602;2022-08-20T11:47:27;22.30;99.90
30049;DHT22;16879;50.852;15.602;2022-08-20T11:52:24;22.20;99.90
30049;DHT22;16879;50.852;15.602;2022-08-20T11:54:50;22.20;99.90
30049;DHT22;16879;50.852;15.602;2022-08-20T11:57:24;22.10;99.90
30049;DHT22;16879;50.852;15.602;2022-08-20T11:59:52;22.00;99.90
30049;DHT22;16879;50.852;15.602;2022-08-20T12:02:18;21.90;99.90
30049;DHT22;16879;50.852;15.602;2022-08-20T12:04:44;21.80;99.90
30049;DHT22;16879;50.852;15.602;2022-08-20T12:07:12;21.70;99.90
30049;DHT22;16879;50.852;15.602;2022-08-20T12:09:39;21.60;99.90
30049;DHT22;16879;50.852;15.602;2022-08-20T12:12:05;21.60;99.90
30049;DHT22;16879;50.852;15.602;2022-08-20T12:14:31;21.60;99.90
30049;DHT22;16879;50.852;15.602;2022-08-20T12:17:06;21.60;99.90
30049;DHT22;16879;50.852;15.602;2022-08-20T12:19:31;21.50;99.90
30049;DHT22;16879;50.852;15.602;2022-08-20T12:21:57;21.40;99.90
30049;DHT22;16879;50.852;15.602;2022-08-20T12:24:23;21.40;99.90
30049;DHT22;16879;50.852;15.602;2022-08-20T12:26:48;21.50;99.90
30049;DHT22;16879;50.852;15.602;2022-08-20T12:29:14;21.50;99.90
30049;DHT22;16879;50.852;15.602;2022-08-20T12:31:40;21.50;99.90
30049;DHT22;16879;50.852;15.602;2022-08-20T12:34:05;21.40;99.90
30049;DHT22;16879;50.852;15.602;2022-08-20T12:36:31;21.40;99.90
30049;DHT22;16879;50.852;15.602;2022-08-20T12:38:57;21.40;99.90
30049;DHT22;16879;50.852;15.602;2022-08-20T12:41:29;18.90;99.90
30049;DHT22;16879;50.852;15.602;2022-08-20T12:43:56;21.20;99.90
30049;DHT22;16879;50.852;15.602;2022-08-20T12:46:21;21.20;99.90
30049;DHT22;16879;50.852;15.602;2022-08-20T12:48:47;21.10;99.90
30049;DHT22;16879;50.852;15.602;2022-08-20T12:51:13;21.10;99.90
30049;DHT22;16879;50.852;15.602;2022-08-20T12:53:39;21.10;99.90
30049;DHT22;16879;50.852;15.602;2022-08-20T12:56:05;21.00;99.90
30049;DHT22;16879;50.852;15.602;2022-08-20T12:58:30;21.00;99.90
30049;DHT22;16879;50.852;15.602;2022-08-20T13:00:56;20.90;99.90
30049;DHT22;16879;50.852;15.602;2022-08-20T13:03:22;20.90;99.90
30049;DHT22;16879;50.852;15.602;2022-08-20T13:05:48;20.80;99.90
30049;DHT22;16879;50.852;15.602;2022-08-20T13:08:14;20.70;99.90
30049;DHT22;16879;50.852;15.602;2022-08-20T13:10:43;20.70;99.90
30049;DHT22;16879;50.852;15.602;2022-08-20T13:13:14;20.70;99.90
30049;DHT22;16879;50.852;15.602;2022-08-20T13:15:40;20.60;99.90
30049;DHT22;16879;50.852;15.602;2022-08-20T13:18:07;20.50;99.90
30049;DHT22;16879;50.852;15.602;2022-08-20T13:20:33;20.50;99.90
30049;DHT22;16879;50.852;15.602;2022-08-20T13:22:59;20.60;99.90
30049;DHT22;16879;50.852;15.602;2022-08-20T13:25:25;20.60;99.90
30049;DHT22;16879;50.852;15.602;2022-08-20T13:27:57;20.60;99.90
30049;DHT22;16879;50.852;15.602;2022-08-20T13:30:23;20.60;99.90
30049;DHT22;16879;50.852;15.602;2022-08-20T13:32:49;19.20;99.90
30049;DHT22;16879;50.852;15.602;2022-08-20T13:35:15;20.70;99.90
30049;DHT22;16879;50.852;15.602;2022-08-20T13:37:41;20.70;99.90
30049;DHT22;16879;50.852;15.602;2022-08-20T13:40:07;20.70;99.90
30049;DHT22;16879;50.852;15.602;2022-08-20T13:42:34;20.80;99.90
30049;DHT22;16879;50.852;15.602;2022-08-20T13:45:00;20.90;99.90
30049;DHT22;16879;50.852;15.602;2022-08-20T13:47:29;20.90;99.90
30049;DHT22;16879;50.852;15.602;2022-08-20T13:50:09;20.90;99.90
30049;DHT22;16879;50.852;15.602;2022-08-20T13:52:36;20.90;99.90
30049;DHT22;16879;50.852;15.602;2022-08-20T13:55:04;20.90;99.90
30049;DHT22;16879;50.852;15.602;2022-08-20T13:57:30;24.20;99.90
30049;DHT22;16879;50.852;15.602;2022-08-20T13:59:57;20.80;99.90
30049;DHT22;16879;50.852;15.602;2022-08-20T14:02:23;20.80;99.90
30049;DHT22;16879;50.852;15.602;2022-08-20T14:04:49;23.10;99.90
30049;DHT22;16879;50.852;15.602;2022-08-20T14:07:25;20.80;99.90
30049;DHT22;16879;50.852;15.602;2022-08-20T14:09:54;20.80;99.90
30049;DHT22;16879;50.852;15.602;2022-08-20T14:12:22;20.70;99.90
30049;DHT22;16879;50.852;15.602;2022-08-20T14:14:49;20.70;99.90
30049;DHT22;16879;50.852;15.602;2022-08-20T14:17:27;20.70;99.90
30049;DHT22;16879;50.852;15.602;2022-08-20T14:20:03;20.60;99.90
30049;DHT22;16879;50.852;15.602;2022-08-20T14:22:29;20.60;99.90
30049;DHT22;16879;50.852;15.602;2022-08-20T14:24:55;20.40;99.90
30049;DHT22;16879;50.852;15.602;2022-08-20T14:27:22;20.40;99.90
30049;DHT22;16879;50.852;15.602;2022-08-20T14:29:49;20.40;99.90
30049;DHT22;16879;50.852;15.602;2022-08-20T14:32:16;20.30;99.90
30049;DHT22;16879;50.852;15.602;2022-08-20T14:34:42;20.20;99.90
30049;DHT22;16879;50.852;15.602;2022-08-20T14:39:38;20.10;99.90
30049;DHT22;16879;50.852;15.602;2022-08-20T14:42:04;20.00;99.90
30049;DHT22;16879;50.852;15.602;2022-08-20T14:44:30;20.00;99.90
30049;DHT22;16879;50.852;15.602;2022-08-20T14:46:56;20.00;99.90
30049;DHT22;16879;50.852;15.602;2022-08-20T14:49:21;20.00;99.90
30049;DHT22;16879;50.852;15.602;2022-08-20T14:51:47;20.00;99.90
30049;DHT22;16879;50.852;15.602;2022-08-20T14:54:13;20.00;99.90
30049;DHT22;16879;50.852;15.602;2022-08-20T14:56:39;20.00;99.90
30049;DHT22;16879;50.852;15.602;2022-08-20T14:59:04;20.00;99.90
30049;DHT22;16879;50.852;15.602;2022-08-20T15:01:30;19.90;99.90
30049;DHT22;16879;50.852;15.602;2022-08-20T15:03:56;19.90;99.90
30049;DHT22;16879;50.852;15.602;2022-08-20T15:06:22;19.80;99.90
30049;DHT22;16879;50.852;15.602;2022-08-20T15:08:47;19.80;99.90
30049;DHT22;16879;50.852;15.602;2022-08-20T15:11:13;19.80;99.90
30049;DHT22;16879;50.852;15.602;2022-08-20T15:13:39;19.70;99.90
30049;DHT22;16879;50.852;15.602;2022-08-20T15:16:05;19.70;99.90
30049;DHT22;16879;50.852;15.602;2022-08-20T15:18:31;19.60;99.90
30049;DHT22;16879;50.852;15.602;2022-08-20T15:20:56;19.60;99.90
30049;DHT22;16879;50.852;15.602;2022-08-20T15:23:22;19.60;99.90
30049;DHT22;16879;50.852;15.602;2022-08-20T15:25:48;19.60;99.90
30049;DHT22;16879;50.852;15.602;2022-08-20T15:28:15;19.50;99.90
30049;DHT22;16879;50.852;15.602;2022-08-20T15:30:41;19.50;99.90